Time;durP1;ratioP1;P1;durP2;ratioP2;P2;SDS_P1;SDS_P2;PMS_P1;PMS_P2;Temp;Humidity;BMP_temperature;BMP_pressure;BME280_temperature;BME280_humidity;BME280_pressure;Samples;Min_cycle;Max_cycle;Signal;HPM_P1;HPM_P2
2021/08/05 00:00:26;;;;;;;18.40;8.90;;;15.90;99.90;;;;;;5044986;28;20045;-83
2021/08/05 00:02:54;;;;;;;16.63;8.80;;;15.90;99.90;;;;;;5043108;28;20049;-83
2021/08/05 00:05:24;;;;;;;21.00;9.25;;;15.90;99.90;;;;;;5045635;28;20048;-83
2021/08/05 00:07:52;;;;;;;17.17;8.80;;;15.80;99.90;;;;;;5043854;28;20045;-83
2021/08/05 00:10:20;;;;;;;16.17;8.55;;;15.80;99.90;;;;;;5046886;28;20064;-84
2021/08/05 00:12:48;;;;;;;18.17;9.23;;;16.10;99.90;;;;;;5039834;28;20045;-84
2021/08/05 00:15:17;;;;;;;16.50;9.82;;;15.80;99.90;;;;;;5043017;28;20060;-82
2021/08/05 00:17:51;;;;;;;15.10;8.15;;;15.70;99.90;;;;;;5029230;28;20037;-81
2021/08/05 00:20:24;;;;;;;16.08;9.68;;;15.70;99.90;;;;;;5047613;28;20059;-83
2021/08/05 00:22:59;;;;;;;14.73;8.57;;;15.70;99.90;;;;;;5025304;28;20054;-83
2021/08/05 00:25:27;;;;;;;14.38;7.43;;;15.70;99.90;;;;;;5030161;28;20057;-83
2021/08/05 00:28:04;;;;;;;13.60;7.82;;;15.60;99.90;;;;;;5045018;28;20042;-84
2021/08/05 00:30:32;;;;;;;12.50;7.57;;;15.70;99.90;;;;;;5042200;28;20051;-84
2021/08/05 00:33:03;;;;;;;15.93;8.95;;;15.60;99.90;;;;;;5029418;28;20034;-83
2021/08/05 00:35:31;;;;;;;13.80;7.72;;;15.60;99.90;;;;;;5042919;28;20054;-83
2021/08/05 00:37:59;;;;;;;17.50;8.10;;;15.60;99.90;;;;;;5043425;28;20052;-83
2021/08/05 00:40:30;;;;;;;14.55;7.47;;;15.60;99.90;;;;;;5039530;28;20060;-83
2021/08/05 00:42:58;;;;;;;;;;;14.40;99.90;;;;;;5035162;28;20594;-83
2021/08/05 00:45:27;;;;;;;15.75;8.52;;;15.50;99.90;;;;;;5009920;28;20207;-82
2021/08/05 00:47:57;;;;;;;14.10;7.32;;;15.50;99.90;;;;;;5020839;28;20050;-83
2021/08/05 00:50:26;;;;;;;13.98;7.75;;;15.50;99.90;;;;;;5040867;28;20060;-83
2021/08/05 00:52:58;;;;;;;15.23;7.40;;;15.50;99.90;;;;;;5039319;28;20042;-83
2021/08/05 00:55:33;;;;;;;15.43;8.18;;;15.40;99.90;;;;;;5043013;28;20072;-84
2021/08/05 00:58:02;;;;;;;16.85;7.75;;;15.40;99.90;;;;;;5042435;28;20049;-82
2021/08/05 01:00:31;;;;;;;17.42;7.70;;;15.30;99.90;;;;;;5042358;28;20056;-84
2021/08/05 01:03:13;;;;;;;16.05;8.60;;;15.30;99.90;;;;;;5025896;28;20050;-83
2021/08/05 01:05:49;;;;;;;13.52;7.28;;;15.30;99.90;;;;;;5038146;28;20049;-82
2021/08/05 01:08:25;;;;;;;13.02;6.95;;;15.20;99.90;;;;;;5036564;28;20056;-83
2021/08/05 01:11:11;;;;;;;16.80;7.35;;;15.20;99.90;;;;;;5034435;28;20050;-82
2021/08/05 01:13:57;;;;;;;12.43;7.00;;;15.20;99.90;;;;;;5066423;28;20044;-85
2021/08/05 01:16:30;;;;;;;12.80;7.30;;;15.20;99.90;;;;;;5032505;28;20060;-82
2021/08/05 01:19:14;;;;;;;18.58;7.60;;;15.10;99.90;;;;;;5055288;28;20053;-83
2021/08/05 01:21:50;;;;;;;14.48;7.38;;;15.10;99.90;;;;;;5082469;28;20044;-82
2021/08/05 01:24:23;;;;;;;12.75;7.32;;;15.10;99.90;;;;;;5081578;28;20055;-82
2021/08/05 01:26:57;;;;;;;13.20;7.18;;;15.10;99.90;;;;;;5083290;28;20050;-83
2021/08/05 01:29:35;;;;;;;12.57;7.05;;;15.20;99.90;;;;;;5083902;28;20049;-83
2021/08/05 01:32:06;;;;;;;17.15;6.90;;;15.00;99.90;;;;;;5052626;28;20059;-83
2021/08/05 01:34:38;;;;;;;12.00;6.22;;;15.00;99.90;;;;;;5068358;28;20041;-83
2021/08/05 01:37:12;;;;;;;11.73;6.55;;;15.00;99.90;;;;;;5077925;28;20052;-81
2021/08/05 01:39:44;;;;;;;16.30;7.60;;;14.90;99.90;;;;;;5067942;28;20052;-82
2021/08/05 01:42:22;;;;;;;12.85;6.60;;;15.00;99.90;;;;;;5052450;28;20044;-83
2021/08/05 01:44:59;;;;;;;14.43;6.82;;;14.90;99.90;;;;;;5051618;28;20048;-82
2021/08/05 01:47:38;;;;;;;13.57;6.43;;;16.30;99.90;;;;;;5058847;28;20044;-84
2021/08/05 01:50:14;;;;;;;9.88;6.88;;;15.20;99.90;;;;;;5051132;28;20064;-83
2021/08/05 01:52:43;;;;;;;13.18;7.32;;;14.70;99.90;;;;;;5066232;28;20040;-84
2021/08/05 01:55:13;;;;;;;14.85;7.70;;;14.80;99.90;;;;;;5085680;28;20048;-84
2021/08/05 01:57:41;;;;;;;20.10;7.78;;;14.70;99.90;;;;;;5051619;28;20044;-86
2021/08/05 02:00:12;;;;;;;14.02;8.55;;;14.70;99.90;;;;;;5049585;28;20060;-83
2021/08/05 02:02:53;;;;;;;10.25;6.75;;;14.70;99.90;;;;;;5031777;28;20052;-81
2021/08/05 02:05:48;;;;;;;11.38;5.80;;;14.70;99.90;;;;;;5072140;28;20049;-83
2021/08/05 02:08:22;;;;;;;10.85;6.63;;;14.70;99.90;;;;;;5069651;28;20060;-83
2021/08/05 02:10:51;;;;;;;15.82;8.80;;;14.70;99.90;;;;;;5071599;28;20067;-84
2021/08/05 02:13:35;;;;;;;13.93;7.40;;;14.70;99.90;;;;;;5076473;28;20054;-82
2021/08/05 02:16:07;;;;;;;14.93;7.22;;;14.70;99.90;;;;;;5083461;28;20043;-84
2021/08/05 02:18:45;;;;;;;14.95;8.15;;;14.70;99.90;;;;;;5055408;28;20393;-82
2021/08/05 02:21:15;;;;;;;22.58;7.97;;;14.70;99.90;;;;;;5070454;28;20041;-83
2021/08/05 02:23:59;;;;;;;13.77;7.40;;;14.70;99.90;;;;;;5068749;28;20029;-82
2021/08/05 02:26:29;;;;;;;13.57;6.63;;;14.70;99.90;;;;;;5059649;28;20045;-84
2021/08/05 02:29:01;;;;;;;15.05;7.45;;;14.70;99.90;;;;;;5078328;28;20048;-85
2021/08/05 02:31:36;;;;;;;11.07;6.32;;;14.70;99.90;;;;;;5054578;28;20059;-84
2021/08/05 02:34:08;;;;;;;12.82;7.32;;;14.70;99.90;;;;;;5072123;28;20045;-83
2021/08/05 02:36:39;;;;;;;13.60;7.40;;;14.70;99.90;;;;;;5068987;28;20055;-84
2021/08/05 02:39:08;;;;;;;15.38;7.03;;;14.70;99.90;;;;;;5074130;28;20052;-82
2021/08/05 02:41:40;;;;;;;15.25;7.88;;;14.70;99.90;;;;;;5073471;28;20036;-84
2021/08/05 02:44:11;;;;;;;16.13;6.75;;;13.70;99.90;;;;;;5054127;28;20056;-84
2021/08/05 02:46:50;;;;;;;13.00;7.60;;;14.70;99.90;;;;;;5068186;28;20045;-83
2021/08/05 02:49:24;;;;;;;17.60;8.57;;;14.60;99.90;;;;;;5068066;28;20071;-82
2021/08/05 02:52:07;;;;;;;;;;;;;;;;;;;;;
2021/08/05 02:54:37;;;;;;;16.00;7.18;;;14.60;99.90;;;;;;5068918;28;20037;-83
2021/08/05 02:57:10;;;;;;;16.33;7.78;;;14.50;99.90;;;;;;5071968;28;20040;-83
2021/08/05 02:59:38;;;;;;;;;;;15.50;99.90;;;;;;5072169;28;20064;-83
2021/08/05 03:02:10;;;;;;;12.38;7.60;;;14.50;99.90;;;;;;5083944;28;19925;-83
2021/08/05 03:04:43;;;;;;;11.98;6.90;;;14.40;99.90;;;;;;5054806;28;20051;-83
2021/08/05 03:07:12;;;;;;;12.63;6.47;;;14.50;99.90;;;;;;5039589;28;20260;-83
2021/08/05 03:09:40;;;;;;;14.75;8.25;;;14.40;99.90;;;;;;5090864;28;20044;-82
2021/08/05 03:12:09;;;;;;;15.10;8.30;;;14.40;99.90;;;;;;5073447;28;20052;-84
2021/08/05 03:14:41;;;;;;;15.98;8.45;;;14.30;99.90;;;;;;5090799;28;20298;-84
2021/08/05 03:17:13;;;;;;;14.15;7.90;;;14.30;99.90;;;;;;5074545;28;20053;-82
2021/08/05 03:19:46;;;;;;;10.35;6.80;;;14.30;99.90;;;;;;5071305;28;20041;-82
2021/08/05 03:22:19;;;;;;;16.00;7.55;;;14.30;99.90;;;;;;5065182;28;20045;-85
2021/08/05 03:24:49;;;;;;;11.82;7.22;;;14.20;99.90;;;;;;5073715;28;20050;-85
2021/08/05 03:27:19;;;;;;;12.32;7.13;;;14.20;99.90;;;;;;5080262;28;20049;-83
2021/08/05 03:29:47;;;;;;;14.57;9.05;;;15.00;99.90;;;;;;5083752;28;20500;-82
2021/08/05 03:32:15;;;;;;;15.40;6.93;;;14.20;99.90;;;;;;5052431;28;20058;-83
2021/08/05 03:34:44;;;;;;;17.65;8.18;;;14.20;99.90;;;;;;5086201;28;20050;-83
2021/08/05 03:37:13;;;;;;;14.27;7.90;;;14.20;99.90;;;;;;5049983;28;20064;-82
2021/08/05 03:39:40;;;;;;;18.88;7.63;;;14.10;99.90;;;;;;5081270;28;20055;-83
2021/08/05 03:42:11;;;;;;;15.23;8.82;;;14.20;99.90;;;;;;5038133;28;20063;-82
2021/08/05 03:44:45;;;;;;;19.33;10.38;;;14.10;99.90;;;;;;5071204;28;20044;-83
2021/08/05 03:47:14;;;;;;;16.50;9.00;;;14.50;99.90;;;;;;5049982;28;20041;-83
2021/08/05 03:49:43;;;;;;;14.63;8.35;;;13.10;99.90;;;;;;5078120;28;20230;-82
2021/08/05 03:52:12;;;;;;;17.85;8.13;;;14.00;99.90;;;;;;5053575;28;20056;-82
2021/08/05 03:55:02;;;;;;;17.45;9.30;;;13.60;99.90;;;;;;5055682;28;20041;-82
2021/08/05 03:57:30;;;;;;;16.30;8.88;;;14.00;99.90;;;;;;5072225;28;20047;-82
2021/08/05 03:59:58;;;;;;;13.90;8.07;;;14.00;99.90;;;;;;5069880;28;20049;-82
2021/08/05 04:02:28;;;;;;;17.80;9.50;;;13.90;99.90;;;;;;5036732;28;20059;-82
2021/08/05 04:04:57;;;;;;;19.10;10.52;;;14.00;99.90;;;;;;5071097;28;20049;-83
2021/08/05 04:07:26;;;;;;;19.85;8.13;;;14.00;99.90;;;;;;5078157;28;20042;-83
2021/08/05 04:09:54;;;;;;;16.52;8.45;;;13.90;99.90;;;;;;5085075;28;20039;-81
2021/08/05 04:12:24;;;;;;;17.23;9.13;;;14.10;99.90;;;;;;5020804;28;20061;-83
2021/08/05 04:14:52;;;;;;;30.58;11.43;;;14.10;99.90;;;;;;5048602;28;20037;-82
2021/08/05 04:17:22;;;;;;;17.00;8.40;;;14.00;99.90;;;;;;5049126;28;20055;-82
2021/08/05 04:19:50;;;;;;;17.15;8.35;;;14.00;99.90;;;;;;5040606;28;20049;-82
2021/08/05 04:22:19;;;;;;;15.13;8.25;;;13.90;99.90;;;;;;5040727;28;20045;-83
2021/08/05 04:24:51;;;;;;;13.65;8.20;;;13.90;99.90;;;;;;5047847;28;20060;-83
2021/08/05 04:27:42;;;;;;;19.00;8.68;;;13.90;99.90;;;;;;5044012;28;20057;-82
2021/08/05 04:30:25;;;;;;;18.05;8.70;;;13.90;99.90;;;;;;5034154;28;20049;-83
2021/08/05 04:32:55;;;;;;;18.35;9.60;;;13.90;99.90;;;;;;5049641;28;20046;-82
2021/08/05 04:35:26;;;;;;;14.88;9.30;;;13.90;99.90;;;;;;5048084;28;20050;-84
2021/08/05 04:38:06;;;;;;;19.50;8.38;;;13.90;99.90;;;;;;5015481;28;20057;-83
2021/08/05 04:40:38;;;;;;;;;;;13.90;99.90;;;;;;5049929;28;20470;-82
2021/08/05 04:43:06;;;;;;;17.02;8.52;;;13.80;99.90;;;;;;5051137;28;19927;-83
2021/08/05 04:45:34;;;;;;;14.65;7.82;;;13.80;99.90;;;;;;5045570;28;20037;-82
2021/08/05 04:48:08;;;;;;;18.42;8.02;;;13.80;99.90;;;;;;5049660;28;20041;-84
2021/08/05 04:50:46;;;;;;;18.43;9.30;;;13.80;99.90;;;;;;5048938;28;20058;-84
2021/08/05 04:53:17;;;;;;;16.95;8.63;;;13.80;99.90;;;;;;5047676;28;20295;-82
2021/08/05 04:55:47;;;;;;;18.05;9.13;;;13.80;99.90;;;;;;5028944;28;20269;-82
2021/08/05 04:58:22;;;;;;;17.63;9.30;;;13.70;99.90;;;;;;5046580;28;20056;-83
2021/08/05 05:00:55;;;;;;;19.88;10.02;;;13.70;99.90;;;;;;5024494;28;20071;-82
2021/08/05 05:03:23;;;;;;;16.02;8.27;;;13.70;99.90;;;;;;5042161;28;20037;-83
2021/08/05 05:05:52;;;;;;;19.67;8.45;;;13.70;99.90;;;;;;5039268;28;20041;-82
2021/08/05 05:08:23;;;;;;;14.18;7.57;;;13.70;99.90;;;;;;5044191;28;20045;-83
2021/08/05 05:10:54;;;;;;;18.98;9.48;;;13.70;99.90;;;;;;5028502;28;20316;-83
2021/08/05 05:13:25;;;;;;;17.80;9.03;;;13.70;99.90;;;;;;5064290;28;20059;-82
2021/08/05 05:16:15;;;;;;;18.90;8.57;;;13.70;99.90;;;;;;5066039;28;20044;-83
2021/08/05 05:18:44;;;;;;;21.27;9.02;;;13.70;99.90;;;;;;5064791;28;20044;-83
2021/08/05 05:21:17;;;;;;;23.20;10.02;;;13.70;99.90;;;;;;5085612;28;20066;-83
2021/08/05 05:23:49;;;;;;;16.77;9.40;;;13.60;99.90;;;;;;5085542;28;20059;-84
2021/08/05 05:26:22;;;;;;;20.95;9.50;;;13.70;99.90;;;;;;5052805;28;20046;-83
2021/08/05 05:28:50;;;;;;;18.88;9.70;;;13.70;99.90;;;;;;5061185;28;20040;-83
2021/08/05 05:31:18;;;;;;;20.55;12.20;;;13.60;99.90;;;;;;5056751;28;20461;-83
2021/08/05 05:34:12;;;;;;;21.55;10.77;;;13.80;99.90;;;;;;5085944;28;20044;-83
2021/08/05 05:36:42;;;;;;;30.65;13.73;;;13.60;99.90;;;;;;5064833;28;20049;-84
2021/08/05 05:39:16;;;;;;;22.13;11.45;;;13.70;99.90;;;;;;5052687;28;20037;-84
2021/08/05 05:41:44;;;;;;;23.27;10.80;;;13.70;99.90;;;;;;5057001;28;20059;-82
2021/08/05 05:44:12;;;;;;;26.45;11.40;;;13.80;99.90;;;;;;5074317;28;20055;-82
2021/08/05 05:46:43;;;;;;;26.02;11.35;;;13.80;99.90;;;;;;5051830;28;20294;-82
2021/08/05 05:49:16;;;;;;;24.95;10.88;;;13.80;99.90;;;;;;5050954;28;20052;-84
2021/08/05 05:51:49;;;;;;;25.27;11.15;;;14.10;99.90;;;;;;5029544;28;20258;-83
2021/08/05 05:54:20;;;;;;;32.15;11.98;;;14.00;99.90;;;;;;5066954;28;20043;-83
2021/08/05 05:56:52;;;;;;;27.38;11.82;;;14.10;99.90;;;;;;5076055;28;20045;-85
2021/08/05 05:59:25;;;;;;;24.67;11.40;;;14.10;99.90;;;;;;5062007;28;20206;-84
2021/08/05 06:01:57;;;;;;;27.23;11.90;;;14.30;99.90;;;;;;5050825;28;20052;-83
2021/08/05 06:04:26;;;;;;;26.80;10.85;;;14.40;99.90;;;;;;5067836;28;20355;-82
2021/08/05 06:06:55;;;;;;;30.20;11.38;;;14.50;99.90;;;;;;5085309;28;20060;-82
2021/08/05 06:09:25;;;;;;;22.48;9.65;;;14.50;99.90;;;;;;5070027;28;20045;-83
2021/08/05 06:11:56;;;;;;;23.77;10.27;;;14.80;99.90;;;;;;5074291;28;20067;-83
2021/08/05 06:14:25;;;;;;;22.67;9.32;;;14.70;99.90;;;;;;5079643;28;20252;-82
2021/08/05 06:16:53;;;;;;;22.55;10.50;;;14.80;99.90;;;;;;5051495;28;20041;-83
2021/08/05 06:19:21;;;;;;;18.90;8.63;;;14.30;99.90;;;;;;5036276;28;20059;-83
2021/08/05 06:21:51;;;;;;;24.90;9.02;;;15.00;99.90;;;;;;5068512;28;20052;-82
2021/08/05 06:24:19;;;;;;;22.85;8.98;;;15.10;99.90;;;;;;5072973;28;20064;-81
2021/08/05 06:26:49;;;;;;;21.70;8.27;;;15.20;99.90;;;;;;5080409;28;20062;-82
2021/08/05 06:29:18;;;;;;;23.13;8.70;;;15.20;99.90;;;;;;5068040;28;20048;-83
2021/08/05 06:31:53;;;;;;;20.05;9.40;;;15.30;99.90;;;;;;5080956;28;20036;-82
2021/08/05 06:34:21;;;;;;;20.90;9.15;;;15.40;99.90;;;;;;5064257;28;20052;-83
2021/08/05 06:36:50;;;;;;;20.17;7.88;;;15.40;99.90;;;;;;5063725;28;20051;-83
2021/08/05 06:39:28;;;;;;;16.15;8.18;;;15.50;99.90;;;;;;5064102;28;20057;-82
2021/08/05 06:41:56;;;;;;;22.77;9.68;;;15.60;99.90;;;;;;5032153;28;20063;-82
2021/08/05 06:44:26;;;;;;;23.17;8.77;;;15.70;99.90;;;;;;5082523;28;20051;-82
2021/08/05 06:46:58;;;;;;;21.65;10.13;;;15.70;99.90;;;;;;5045848;28;20055;-82
2021/08/05 06:49:27;;;;;;;24.75;10.63;;;15.90;99.90;;;;;;5083684;28;20036;-81
2021/08/05 06:52:10;;;;;;;23.88;10.00;;;15.90;99.90;;;;;;5036476;28;20059;-81
2021/08/05 06:54:39;;;;;;;20.00;7.40;;;15.90;99.90;;;;;;5068385;28;20501;-81
2021/08/05 06:57:07;;;;;;;21.58;10.52;;;16.10;99.90;;;;;;5049861;28;20055;-83
2021/08/05 06:59:37;;;;;;;17.95;7.60;;;16.10;99.90;;;;;;5085476;28;20048;-82
2021/08/05 07:02:12;;;;;;;18.85;7.97;;;16.20;99.90;;;;;;5073566;28;20040;-92
2021/08/05 07:05:13;;;;;;;16.73;7.28;;;16.30;99.90;;;;;;5077697;28;20040;-92
2021/08/05 07:08:17;;;;;;;16.27;7.50;;;16.40;99.90;;;;;;5044429;28;20021;-90
2021/08/05 07:11:11;;;;;;;11.55;5.35;;;16.50;99.90;;;;;;5084874;28;20021;-87
2021/08/05 07:13:41;;;;;;;12.60;5.43;;;16.60;99.90;;;;;;5055664;28;20064;-91
2021/08/05 07:16:14;;;;;;;15.13;5.40;;;16.60;99.90;;;;;;5054225;28;20051;-93
2021/08/05 07:18:45;;;;;;;10.70;5.88;;;16.80;99.90;;;;;;5053458;28;20045;-89
2021/08/05 07:21:16;;;;;;;13.27;6.35;;;16.90;99.90;;;;;;5047046;28;20064;-86
2021/08/05 07:23:44;;;;;;;12.18;5.43;;;16.90;99.90;;;;;;5045926;28;20045;-84
2021/08/05 07:26:35;;;;;;;11.85;6.65;;;17.00;99.90;;;;;;5024149;28;20046;-84
2021/08/05 07:29:05;;;;;;;10.88;6.05;;;17.10;99.90;;;;;;5027308;28;20057;-88
2021/08/05 07:31:37;;;;;;;11.38;5.90;;;17.10;99.90;;;;;;5049489;28;20041;-86
2021/08/05 07:34:45;;;;;;;10.75;5.43;;;17.20;99.90;;;;;;4993158;28;20058;-85
2021/08/05 07:37:40;;;;;;;12.10;5.70;;;17.30;99.90;;;;;;5055435;28;20049;-90
2021/08/05 07:40:13;;;;;;;11.82;5.63;;;17.30;99.90;;;;;;5047241;28;20068;-91
2021/08/05 07:42:47;;;;;;;15.52;6.18;;;17.40;99.90;;;;;;5032790;28;20056;-88
2021/08/05 07:45:18;;;;;;;12.50;5.20;;;17.70;99.90;;;;;;5024993;28;20046;-86
2021/08/05 07:47:47;;;;;;;11.27;5.03;;;17.50;99.90;;;;;;5033675;28;20055;-88
2021/08/05 07:50:43;;;;;;;11.52;5.50;;;17.60;99.90;;;;;;5030611;28;20396;-86
2021/08/05 07:53:11;;;;;;;11.45;5.30;;;17.60;99.90;;;;;;5042536;28;20045;-88
2021/08/05 07:55:40;;;;;;;14.90;5.40;;;17.80;99.90;;;;;;5040398;28;20040;-86
2021/08/05 07:58:09;;;;;;;19.23;7.10;;;17.70;99.90;;;;;;5023203;28;20042;-92
2021/08/05 08:00:39;;;;;;;12.18;6.10;;;17.80;99.90;;;;;;5056923;28;20045;-89
2021/08/05 08:03:33;;;;;;;16.40;5.72;;;17.80;99.90;;;;;;5049185;28;20033;-89
2021/08/05 08:06:03;;;;;;;7.45;3.95;;;17.90;99.90;;;;;;5052317;28;20045;-88
2021/08/05 08:08:31;;;;;;;10.25;4.95;;;18.00;99.90;;;;;;5050600;28;20048;-88
2021/08/05 08:11:01;;;;;;;7.82;4.55;;;18.10;99.90;;;;;;5023938;28;20055;-90
2021/08/05 08:13:38;;;;;;;8.63;3.70;;;18.20;99.90;;;;;;5035993;28;20049;-87
2021/08/05 08:16:08;;;;;;;11.77;5.25;;;18.20;99.90;;;;;;5053999;28;20060;-89
2021/08/05 08:18:41;;;;;;;7.68;3.85;;;18.20;99.90;;;;;;5048268;28;20045;-89
2021/08/05 08:21:13;;;;;;;10.65;4.50;;;18.30;99.90;;;;;;5034404;28;20137;-86
2021/08/05 08:23:44;;;;;;;11.25;3.90;;;18.30;99.90;;;;;;5046213;28;20044;-83
2021/08/05 08:26:18;;;;;;;10.48;3.97;;;18.40;99.90;;;;;;5021993;28;20064;-90
2021/08/05 08:28:47;;;;;;;7.97;4.05;;;18.50;99.90;;;;;;5036956;28;20056;-89
2021/08/05 08:31:40;;;;;;;8.45;3.78;;;18.50;99.90;;;;;;5050939;28;20382;-89
2021/08/05 08:34:10;;;;;;;7.07;3.60;;;18.70;99.90;;;;;;5038824;28;20127;-89
2021/08/05 08:36:39;;;;;;;7.18;3.65;;;18.70;99.90;;;;;;5053049;28;20053;-92
2021/08/05 08:39:39;;;;;;;7.88;4.35;;;18.80;99.90;;;;;;5031912;28;20053;-85
2021/08/05 08:42:16;;;;;;;7.75;4.68;;;18.80;99.90;;;;;;5053138;28;20051;-84
2021/08/05 08:44:47;;;;;;;8.90;4.00;;;18.90;99.90;;;;;;5056573;28;20055;-88
2021/08/05 08:47:23;;;;;;;7.70;3.47;;;19.10;99.90;;;;;;5039589;28;20051;-90
2021/08/05 08:49:58;;;;;;;9.35;4.30;;;19.20;99.90;;;;;;5071125;28;20055;-86
2021/08/05 08:55:44;;;;;;;8.35;4.15;;;19.50;99.90;;;;;;5049270;28;20042;-86
2021/08/05 08:58:22;;;;;;;9.77;3.35;;;19.60;99.40;;;;;;5065513;28;20139;-86
2021/08/05 09:00:52;;;;;;;6.32;3.30;;;19.70;99.70;;;;;;5054755;28;20051;-91
2021/08/05 09:03:47;;;;;;;9.48;3.60;;;19.80;99.10;;;;;;5052218;28;20071;-87
2021/08/05 09:06:48;;;;;;;7.97;3.88;;;19.90;98.30;;;;;;5040890;28;20068;-88
2021/08/05 09:09:33;;;;;;;;;;;;;;;;;;;;;
2021/08/05 09:12:20;;;;;;;7.75;4.72;;;20.00;98.40;;;;;;5047712;28;20053;-88
2021/08/05 09:18:45;;;;;;;7.93;5.07;;;20.10;97.90;;;;;;4987471;28;20150;-87
2021/08/05 09:22:00;;;;;;;;;;;20.10;98.50;;;;;;4974956;28;20128;-87
2021/08/05 09:25:38;;;;;;;;;;;20.10;97.50;;;;;;4952592;29;19970;-83
2021/08/05 09:28:15;;;;;;;7.50;3.10;;;20.10;97.90;;;;;;4997046;23;19905;-91
2021/08/05 09:31:16;;;;;;;8.13;3.58;;;19.50;97.60;;;;;;5032070;28;20055;-88
2021/08/05 09:33:44;;;;;;;8.57;3.90;;;20.10;96.60;;;;;;5038483;28;20064;-88
2021/08/05 09:36:28;;;;;;;6.10;3.25;;;20.10;97.30;;;;;;5067309;28;20055;-86
2021/08/05 09:39:26;;;;;;;13.10;3.92;;;20.20;97.00;;;;;;5070711;28;20021;-89
2021/08/05 09:42:19;;;;;;;9.60;3.60;;;20.20;96.10;;;;;;5069812;28;20041;-84
2021/08/05 09:44:52;;;;;;;8.80;3.53;;;20.00;97.00;;;;;;5061161;28;20051;-86
2021/08/05 09:47:24;;;;;;;7.30;3.70;;;20.40;97.30;;;;;;5068502;28;20060;-88
2021/08/05 09:49:56;;;;;;;10.05;3.85;;;19.80;96.70;;;;;;5044327;28;20045;-90
2021/08/05 09:53:11;;;;;;;6.05;2.85;;;20.70;96.90;;;;;;5066116;28;20047;-90
2021/08/05 09:55:46;;;;;;;5.35;2.70;;;21.50;96.50;;;;;;5051824;23;20035;31
2021/08/05 09:58:26;;;;;;;8.93;3.63;;;20.90;96.90;;;;;;5011483;28;20046;-89
2021/08/05 10:01:16;;;;;;;7.55;3.65;;;21.00;95.90;;;;;;4999087;28;20053;-85
2021/08/05 10:03:45;;;;;;;11.35;4.00;;;21.10;96.40;;;;;;4995229;28;20073;-88
2021/08/05 10:06:15;;;;;;;10.13;3.53;;;21.20;95.90;;;;;;4993769;28;20053;-87
2021/08/05 10:08:44;;;;;;;6.22;3.15;;;21.30;95.80;;;;;;5003949;28;20634;-89
2021/08/05 10:11:13;;;;;;;7.63;3.78;;;21.40;95.60;;;;;;4998729;28;20070;-91
2021/08/05 10:13:41;;;;;;;8.20;3.10;;;20.80;95.40;;;;;;4968500;28;20066;-90
2021/08/05 10:16:12;;;;;;;6.95;3.50;;;21.60;95.60;;;;;;4984976;28;20050;-88
2021/08/05 10:18:43;;;;;;;7.80;2.78;;;21.60;95.10;;;;;;4976412;28;20058;-90
2021/08/05 10:21:13;;;;;;;7.85;3.15;;;21.70;94.70;;;;;;5000933;28;20042;-89
2021/08/05 10:23:44;;;;;;;9.25;3.53;;;21.80;94.80;;;;;;4990002;28;20057;-89
2021/08/05 10:26:12;;;;;;;13.75;2.83;;;21.90;94.70;;;;;;4999056;28;20050;-88
2021/08/05 10:28:40;;;;;;;8.65;3.08;;;22.00;94.60;;;;;;4982074;28;20399;-89
2021/08/05 10:31:10;;;;;;;6.18;3.42;;;22.00;94.20;;;;;;4998579;28;20495;-90
2021/08/05 10:33:41;;;;;;;6.50;3.00;;;22.10;94.10;;;;;;4989887;28;20038;-89
2021/08/05 10:36:10;;;;;;;;;;;22.10;94.10;;;;;;4997042;28;20050;-89
2021/08/05 10:38:43;;;;;;;5.78;2.42;;;22.00;93.30;;;;;;5018323;28;20424;-89
2021/08/05 10:41:12;;;;;;;8.85;3.42;;;21.90;94.30;;;;;;5017262;28;20042;-89
2021/08/05 10:43:41;;;;;;;6.10;2.30;;;22.00;94.10;;;;;;4976081;28;20054;-89
2021/08/05 10:46:10;;;;;;;7.00;3.03;;;22.00;94.40;;;;;;5015697;28;20058;-89
2021/08/05 10:48:42;;;;;;;6.63;2.90;;;22.00;93.80;;;;;;5021397;28;20461;-89
2021/08/05 10:51:11;;;;;;;10.43;4.05;;;22.10;93.90;;;;;;4991993;28;20033;-89
2021/08/05 10:53:42;;;;;;;11.60;3.28;;;22.20;94.10;;;;;;5004566;28;20077;-89
2021/08/05 10:56:26;;;;;;;6.38;2.78;;;22.20;93.70;;;;;;5004496;28;20046;-87
2021/08/05 10:59:07;;;;;;;5.88;2.90;;;22.20;93.40;;;;;;5018046;28;20527;-91
2021/08/05 11:01:44;;;;;;;5.57;2.90;;;22.20;93.60;;;;;;5013852;28;20504;-88
2021/08/05 11:04:31;;;;;;;7.40;3.03;;;22.30;93.70;;;;;;5004728;28;20060;-91
2021/08/05 11:07:29;;;;;;;6.28;2.58;;;22.50;93.50;;;;;;4985443;28;20042;-89
2021/08/05 11:10:26;;;;;;;6.80;3.15;;;22.70;93.70;;;;;;5009184;28;20050;-87
2021/08/05 11:13:12;;;;;;;4.88;2.35;;;22.80;93.50;;;;;;4999499;28;20065;-88
2021/08/05 11:15:40;;;;;;;4.47;2.38;;;23.00;93.50;;;;;;5003585;28;20038;-90
2021/08/05 11:18:17;;;;;;;8.10;3.00;;;22.70;93.10;;;;;;5015768;28;20065;-89
2021/08/05 11:20:51;;;;;;;9.20;3.63;;;23.30;93.00;;;;;;5007277;28;20057;-87
2021/08/05 11:23:25;;;;;;;5.85;3.45;;;23.40;93.00;;;;;;5025201;28;20050;-89
2021/08/05 11:25:55;;;;;;;8.25;2.92;;;23.50;93.00;;;;;;5008996;28;20068;-87
2021/08/05 11:28:40;;;;;;;4.47;2.45;;;23.70;93.10;;;;;;5004539;28;20042;-90
2021/08/05 11:31:29;;;;;;;6.25;2.47;;;23.80;92.60;;;;;;5003465;28;20057;-90
2021/08/05 11:34:03;;;;;;;4.85;2.47;;;23.60;92.30;;;;;;5018215;28;20050;-90
2021/08/05 11:36:33;;;;;;;8.55;2.88;;;23.50;92.50;;;;;;5004611;28;20060;-90
2021/08/05 11:39:20;;;;;;;5.05;2.78;;;23.40;92.40;;;;;;5020212;28;20049;-89
2021/08/05 11:42:13;;;;;;;5.72;2.95;;;23.30;92.50;;;;;;5002875;28;20057;-88
2021/08/05 11:45:05;;;;;;;5.60;3.17;;;23.10;92.80;;;;;;5019603;28;20045;-86
2021/08/05 11:47:34;;;;;;;4.50;2.40;;;23.00;93.00;;;;;;5004703;28;20037;-92
2021/08/05 11:50:08;;;;;;;6.90;3.17;;;22.90;93.50;;;;;;4989328;28;20312;-90
2021/08/05 11:52:43;;;;;;;7.32;2.88;;;22.80;93.20;;;;;;5007833;28;20060;-91
2021/08/05 11:55:27;;;;;;;8.18;3.35;;;22.80;93.40;;;;;;5013322;28;20054;-89
2021/08/05 11:57:59;;;;;;;5.30;3.05;;;22.80;93.50;;;;;;5051637;28;20049;-91
2021/08/05 12:00:39;;;;;;;7.40;2.95;;;23.00;93.60;;;;;;5010273;28;20050;-88
2021/08/05 12:03:12;;;;;;;4.07;2.05;;;23.20;93.30;;;;;;5024309;28;20047;-89
2021/08/05 12:05:48;;;;;;;3.88;2.10;;;23.50;93.40;;;;;;5029450;28;20052;-91
2021/08/05 12:08:21;;;;;;;6.38;2.90;;;23.70;92.80;;;;;;5028637;28;20068;-90
2021/08/05 12:10:52;;;;;;;5.70;2.78;;;23.70;92.90;;;;;;5011504;28;20060;-90
2021/08/05 12:13:23;;;;;;;4.00;1.95;;;23.60;92.90;;;;;;5004620;28;20037;-89
2021/08/05 12:15:56;;;;;;;4.27;2.23;;;23.60;92.90;;;;;;5002974;28;20066;-90
2021/08/05 12:18:26;;;;;;;7.38;2.45;;;22.70;92.80;;;;;;5017759;28;20052;-90
2021/08/05 12:21:02;;;;;;;5.63;2.55;;;23.80;92.80;;;;;;5003089;28;20408;-89
2021/08/05 12:23:42;;;;;;;7.40;2.95;;;23.80;92.20;;;;;;5019313;28;20053;-89
2021/08/05 12:28:43;;;;;;;5.25;2.45;;;23.90;92.50;;;;;;5034831;28;20045;-90
2021/08/05 12:31:20;;;;;;;5.20;2.33;;;24.00;92.70;;;;;;5007544;28;20042;-91
2021/08/05 12:33:50;;;;;;;7.22;2.42;;;24.00;91.90;;;;;;5021063;28;20055;-90
2021/08/05 12:36:26;;;;;;;6.90;3.28;;;23.90;91.90;;;;;;5001039;28;20059;-90
2021/08/05 12:38:55;;;;;;;6.82;2.35;;;23.80;91.20;;;;;;5004003;28;20045;-93
2021/08/05 12:41:51;;;;;;;5.93;2.10;;;23.60;91.70;;;;;;5004998;28;20045;-91
2021/08/05 12:44:27;;;;;;;3.45;2.15;;;23.60;91.20;;;;;;5009430;28;20288;-89
2021/08/05 12:46:58;;;;;;;4.03;2.10;;;23.60;91.70;;;;;;5008688;28;20045;-90
2021/08/05 12:49:38;;;;;;;5.95;2.95;;;23.70;92.10;;;;;;4992675;28;20052;-90
2021/08/05 12:52:14;;;;;;;6.80;2.08;;;23.80;92.10;;;;;;5029116;28;20042;-91
2021/08/05 12:54:56;;;;;;;3.83;2.30;;;24.80;92.80;;;;;;5024805;28;20050;-89
2021/08/05 12:57:35;;;;;;;10.18;2.42;;;24.10;92.20;;;;;;5024381;28;20402;-90
2021/08/05 13:00:23;;;;;;;7.75;2.30;;;24.30;92.00;;;;;;5028879;28;20048;-92
2021/08/05 13:03:01;;;;;;;4.88;2.45;;;24.30;91.90;;;;;;5031313;28;20033;-89
2021/08/05 13:05:31;;;;;;;6.88;2.67;;;24.30;91.20;;;;;;5023759;28;20053;-91
2021/08/05 13:07:59;;;;;;;4.15;2.30;;;24.10;91.90;;;;;;5030260;28;20034;-91
2021/08/05 13:10:45;;;;;;;4.78;2.10;;;23.90;91.50;;;;;;5014272;28;20044;-90
2021/08/05 13:13:48;;;;;;;3.65;1.95;;;23.80;91.50;;;;;;5017797;28;20057;-91
2021/08/05 13:16:28;;;;;;;5.72;2.30;;;23.80;91.40;;;;;;5029208;28;20042;-89
2021/08/05 13:19:12;;;;;;;3.67;2.17;;;23.90;91.90;;;;;;5032746;28;20041;-90
2021/08/05 13:21:45;;;;;;;8.75;2.50;;;24.00;91.80;;;;;;5012911;28;20045;-89
2021/08/05 13:24:29;;;;;;;4.63;2.75;;;24.00;91.80;;;;;;5015972;28;20033;-92
2021/08/05 13:27:15;;;;;;;6.82;2.50;;;24.00;91.90;;;;;;5002574;28;20041;-92
2021/08/05 13:29:46;;;;;;;6.88;2.78;;;23.90;91.90;;;;;;5017872;28;20053;-86
2021/08/05 13:32:19;;;;;;;;;;;23.70;92.10;;;;;;5023573;28;20045;-87